Time;durP1;ratioP1;P1;durP2;ratioP2;P2;SDS_P1;SDS_P2;PMS_P1;PMS_P2;Temp;Humidity;BMP_temperature;BMP_pressure;BME280_temperature;BME280_humidity;BME280_pressure;Samples;Min_cycle;Max_cycle;Signal;HPM_P1;HPM_P2
2024/02/03 00:00:03;;;;;;;31.85;22.73;;;9.90;99.90;;;;;;6253012;22;20007;-89
2024/02/03 00:02:29;;;;;;;29.40;20.08;;;9.80;99.90;;;;;;6278627;22;20444;-88
2024/02/03 00:04:55;;;;;;;35.80;23.90;;;9.80;99.90;;;;;;6253577;22;20064;-89
2024/02/03 00:07:21;;;;;;;29.67;21.38;;;9.90;99.90;;;;;;6278038;22;20010;-89
2024/02/03 00:09:49;;;;;;;31.98;23.27;;;9.90;99.90;;;;;;6253200;22;20359;-90
2024/02/03 00:12:16;;;;;;;31.50;22.58;;;9.90;99.90;;;;;;6252720;22;20007;-88
2024/02/03 00:14:41;;;;;;;26.48;19.85;;;9.90;99.90;;;;;;6252999;22;20532;-90
2024/02/03 00:17:07;;;;;;;29.33;21.88;;;9.90;99.90;;;;;;6252341;22;20014;-91
2024/02/03 00:19:33;;;;;;;28.13;20.85;;;9.90;99.90;;;;;;6278362;22;20382;-90
2024/02/03 00:21:59;;;;;;;28.17;20.70;;;9.90;99.90;;;;;;6253138;22;20011;-91
2024/02/03 00:24:26;;;;;;;27.63;19.88;;;9.90;99.90;;;;;;6252523;22;20011;-89
2024/02/03 00:26:53;;;;;;;29.75;19.67;;;9.90;99.90;;;;;;6278713;22;20080;-91
2024/02/03 00:29:19;;;;;;;26.85;19.65;;;9.90;99.90;;;;;;6252640;22;20042;-90
2024/02/03 00:31:45;;;;;;;26.17;18.90;;;9.90;99.90;;;;;;6278686;22;20090;-89
2024/02/03 00:34:11;;;;;;;23.70;17.55;;;10.00;99.90;;;;;;6277991;22;20467;-89
2024/02/03 00:36:36;;;;;;;23.70;17.30;;;10.00;99.90;;;;;;6278254;22;20445;-88
2024/02/03 00:39:03;;;;;;;26.65;17.13;;;9.90;99.90;;;;;;6275339;22;20377;-89
2024/02/03 00:41:29;;;;;;;26.00;16.65;;;10.00;99.90;;;;;;6309260;22;20009;-89
2024/02/03 00:43:55;;;;;;;25.52;16.90;;;10.00;99.90;;;;;;6308875;22;20106;-90
2024/02/03 00:46:20;;;;;;;21.63;16.25;;;10.00;99.90;;;;;;6282790;22;20034;-89
2024/02/03 00:48:46;;;;;;;21.65;15.73;;;10.10;99.90;;;;;;6336403;22;20075;-88
2024/02/03 00:51:12;;;;;;;22.02;15.38;;;10.10;99.90;;;;;;6309240;22;20056;-90
2024/02/03 00:53:41;;;;;;;22.25;14.50;;;10.10;99.90;;;;;;6336217;22;20017;-89
2024/02/03 00:56:08;;;;;;;22.08;14.75;;;10.00;99.90;;;;;;6283496;22;20010;-90
2024/02/03 00:58:34;;;;;;;20.73;14.23;;;10.00;99.90;;;;;;6308635;22;20011;-90
2024/02/03 01:01:00;;;;;;;22.25;15.60;;;10.10;99.90;;;;;;6282754;22;20011;-90
2024/02/03 01:03:25;;;;;;;20.63;14.52;;;10.10;99.90;;;;;;6282775;22;20019;-90
2024/02/03 01:05:52;;;;;;;15.73;12.40;;;10.10;99.90;;;;;;6283566;22;20445;-88
2024/02/03 01:08:21;;;;;;;22.15;13.70;;;10.00;99.90;;;;;;6283100;22;20083;-91
2024/02/03 01:10:47;;;;;;;20.87;14.00;;;10.10;99.90;;;;;;6282643;22;20003;-89
2024/02/03 01:13:13;;;;;;;20.25;13.15;;;10.10;99.90;;;;;;6308426;22;20449;-91
2024/02/03 01:15:39;;;;;;;19.95;13.25;;;10.10;99.90;;;;;;6308290;22;20003;-92
2024/02/03 01:18:05;;;;;;;21.40;13.10;;;10.10;99.90;;;;;;6282339;22;20013;-88
2024/02/03 01:20:32;;;;;;;15.85;12.02;;;10.10;99.90;;;;;;6282977;22;20003;-90
2024/02/03 01:22:58;;;;;;;17.27;12.82;;;10.10;99.90;;;;;;6308777;22;20324;-89
2024/02/03 01:25:24;;;;;;;17.15;12.00;;;10.10;99.90;;;;;;6282444;22;20110;-89
2024/02/03 01:27:50;;;;;;;19.02;12.40;;;10.10;99.90;;;;;;6307837;22;20011;-88
2024/02/03 01:30:16;;;;;;;14.07;10.65;;;10.10;99.90;;;;;;6308121;22;20506;-89
2024/02/03 01:32:42;;;;;;;14.80;11.50;;;10.10;99.90;;;;;;6308962;22;20009;-89
2024/02/03 01:35:09;;;;;;;14.70;9.38;;;10.10;99.90;;;;;;6282563;22;20435;-90
2024/02/03 01:37:35;;;;;;;17.33;11.70;;;10.10;99.90;;;;;;6308257;22;20007;-89
2024/02/03 01:40:02;;;;;;;13.73;9.77;;;10.10;99.90;;;;;;6282843;22;20013;-88
2024/02/03 01:42:28;;;;;;;14.80;10.82;;;10.10;99.90;;;;;;6281937;22;20003;-89
2024/02/03 01:44:54;;;;;;;15.82;10.18;;;10.10;99.90;;;;;;6308293;22;20023;-89
2024/02/03 01:47:20;;;;;;;14.63;9.77;;;10.10;99.90;;;;;;6308432;22;20077;-89
2024/02/03 01:49:47;;;;;;;13.93;9.70;;;10.10;99.90;;;;;;6282550;22;20019;-89
2024/02/03 01:52:13;;;;;;;15.63;10.52;;;10.10;99.90;;;;;;6282344;22;20013;-90
2024/02/03 01:54:43;;;;;;;17.83;10.77;;;10.20;99.90;;;;;;6282512;22;20011;-90
2024/02/03 01:57:09;;;;;;;13.45;9.32;;;10.20;99.90;;;;;;6308050;22;20014;-91
2024/02/03 01:59:35;;;;;;;15.45;9.23;;;10.20;99.90;;;;;;6283157;22;20006;-89
2024/02/03 02:02:01;;;;;;;14.07;9.90;;;10.20;99.90;;;;;;6282531;22;20009;-88
2024/02/03 02:04:29;;;;;;;12.10;9.20;;;10.20;99.90;;;;;;6282152;22;20011;-92
2024/02/03 02:06:56;;;;;;;16.48;9.35;;;10.20;99.90;;;;;;6282740;22;20014;-90
2024/02/03 02:09:26;;;;;;;11.13;9.07;;;10.10;99.90;;;;;;6282953;22;20014;-88
2024/02/03 02:11:54;;;;;;;14.65;8.40;;;10.20;99.90;;;;;;6336679;22;20069;-91
2024/02/03 02:14:21;;;;;;;13.05;8.93;;;10.20;99.90;;;;;;6282544;22;20086;-91
2024/02/03 02:16:47;;;;;;;13.90;8.77;;;10.20;99.90;;;;;;6282933;22;20007;-89
2024/02/03 02:19:13;;;;;;;13.25;8.48;;;10.20;99.90;;;;;;6307912;22;20016;-91
2024/02/03 02:21:39;;;;;;;16.10;9.05;;;10.20;99.90;;;;;;6308379;22;19999;-91
2024/02/03 02:24:05;;;;;;;10.43;7.40;;;10.20;99.90;;;;;;6308207;22;20073;-89
2024/02/03 02:26:30;;;;;;;14.38;8.57;;;10.20;99.90;;;;;;6307768;22;20172;-89
2024/02/03 02:28:56;;;;;;;14.70;8.52;;;10.20;99.90;;;;;;6282759;22;20007;-89
2024/02/03 02:31:22;;;;;;;13.88;8.68;;;10.20;99.90;;;;;;6282245;22;20343;-90
2024/02/03 02:33:48;;;;;;;16.20;9.23;;;10.10;99.90;;;;;;6282214;22;20007;-90
2024/02/03 02:36:13;;;;;;;12.30;8.23;;;10.10;99.90;;;;;;6308101;22;20007;-89
2024/02/03 02:38:39;;;;;;;13.80;8.82;;;10.10;99.90;;;;;;6282101;22;20055;-90
2024/02/03 02:41:05;;;;;;;14.05;8.38;;;10.10;99.90;;;;;;6282267;22;20002;-90
2024/02/03 02:43:31;;;;;;;11.32;7.80;;;10.10;99.90;;;;;;6281807;22;20439;-90
2024/02/03 02:45:56;;;;;;;13.13;8.52;;;10.00;99.90;;;;;;6282280;22;20007;-90
2024/02/03 02:48:22;;;;;;;11.82;7.72;;;10.10;99.90;;;;;;6307068;22;20034;-91
2024/02/03 02:50:48;;;;;;;12.27;7.75;;;10.10;99.90;;;;;;6307933;22;20335;-91
2024/02/03 02:53:14;;;;;;;14.95;9.18;;;10.10;99.90;;;;;;6335026;22;20511;-89
2024/02/03 02:55:40;;;;;;;12.50;8.25;;;10.20;99.90;;;;;;6307546;22;20034;-92
2024/02/03 02:58:06;;;;;;;13.65;8.63;;;10.10;99.90;;;;;;6281634;22;20003;-90
2024/02/03 03:00:32;;;;;;;16.90;8.73;;;10.10;99.90;;;;;;6307664;22;20006;-89
2024/02/03 03:02:58;;;;;;;11.60;7.90;;;10.10;99.90;;;;;;6307980;22;20003;-90
2024/02/03 03:05:23;;;;;;;15.27;8.38;;;10.10;99.90;;;;;;6307571;22;20015;-90
2024/02/03 03:07:50;;;;;;;13.48;8.48;;;10.10;99.90;;;;;;6281671;22;20007;-89
2024/02/03 03:10:16;;;;;;;12.68;8.85;;;10.10;99.90;;;;;;6307160;22;20022;-90
2024/02/03 03:12:42;;;;;;;13.10;8.45;;;10.10;99.90;;;;;;6333642;22;20003;-94
2024/02/03 03:15:08;;;;;;;16.05;8.10;;;10.00;99.90;;;;;;6281690;22;20006;-90
2024/02/03 03:17:34;;;;;;;12.95;9.10;;;10.00;99.90;;;;;;6307387;22;20080;-90
2024/02/03 03:20:00;;;;;;;16.20;10.18;;;10.10;99.90;;;;;;6282047;22;20454;-91
2024/02/03 03:22:26;;;;;;;11.23;8.48;;;10.10;99.90;;;;;;6307529;22;20014;-91
2024/02/03 03:24:52;;;;;;;12.80;9.25;;;10.00;99.90;;;;;;6281478;22;20015;-91
2024/02/03 03:27:18;;;;;;;13.40;8.57;;;10.00;99.90;;;;;;6281328;22;20007;-92
2024/02/03 03:29:46;;;;;;;13.90;9.73;;;10.00;99.90;;;;;;6308021;22;20011;-91
2024/02/03 03:32:12;;;;;;;14.55;8.88;;;10.00;99.90;;;;;;6307181;22;20007;-91
2024/02/03 03:34:39;;;;;;;12.85;10.07;;;10.00;99.90;;;;;;6281209;22;20086;-90
2024/02/03 03:37:05;;;;;;;14.57;9.55;;;10.00;99.90;;;;;;6307789;22;20006;-91
2024/02/03 03:39:30;;;;;;;14.15;9.48;;;10.10;99.90;;;;;;6307055;22;20003;-92
2024/02/03 03:41:56;;;;;;;13.10;9.05;;;10.00;99.90;;;;;;6281364;22;20006;-90
2024/02/03 03:44:22;;;;;;;14.88;9.98;;;10.00;99.90;;;;;;6334498;22;20094;-92
2024/02/03 03:46:48;;;;;;;10.90;7.93;;;10.00;99.90;;;;;;6306873;22;20005;-91
2024/02/03 03:49:13;;;;;;;12.27;7.78;;;10.10;99.90;;;;;;6281309;22;20019;-92
2024/02/03 03:51:39;;;;;;;12.57;9.23;;;10.10;99.90;;;;;;6282098;22;20086;-93
2024/02/03 03:54:05;;;;;;;10.18;7.25;;;10.00;99.90;;;;;;6281520;22;20003;-91
2024/02/03 03:56:31;;;;;;;11.77;7.80;;;10.00;99.90;;;;;;6281370;22;20475;-92
2024/02/03 03:59:01;;;;;;;12.90;10.20;;;10.10;99.90;;;;;;6281795;22;20017;-93
2024/02/03 04:01:27;;;;;;;11.73;8.52;;;10.10;99.90;;;;;;6307863;22;20013;-93
2024/02/03 04:03:53;;;;;;;13.52;8.95;;;10.10;99.90;;;;;;6281441;22;20494;-92
2024/02/03 04:06:18;;;;;;;12.02;9.23;;;10.10;99.90;;;;;;6281186;22;20089;-92
2024/02/03 04:08:44;;;;;;;11.85;9.25;;;10.10;99.90;;;;;;6281341;22;20013;-92
2024/02/03 04:11:10;;;;;;;11.95;8.77;;;10.20;99.90;;;;;;6281800;22;20007;-94
2024/02/03 04:13:38;;;;;;;13.10;9.63;;;10.10;99.90;;;;;;6282059;22;20227;-90
2024/02/03 04:16:04;;;;;;;13.38;9.98;;;10.20;99.90;;;;;;6281592;22;20010;-90
2024/02/03 04:18:30;;;;;;;11.73;9.07;;;10.20;99.90;;;;;;6281305;22;20018;-92
2024/02/03 04:20:56;;;;;;;14.00;10.93;;;10.20;99.90;;;;;;6281708;22;20318;-92
2024/02/03 04:23:21;;;;;;;17.77;11.07;;;10.20;99.90;;;;;;6281017;22;20038;-91
2024/02/03 04:25:47;;;;;;;12.55;10.55;;;10.30;99.90;;;;;;6281326;22;20010;-93
2024/02/03 04:28:13;;;;;;;15.80;10.48;;;10.30;99.90;;;;;;6282164;22;20365;-91
2024/02/03 04:30:39;;;;;;;13.43;10.63;;;10.30;99.90;;;;;;6308429;22;20010;-93
2024/02/03 04:33:04;;;;;;;14.10;10.43;;;10.30;99.90;;;;;;6282340;22;20010;-92
2024/02/03 04:35:33;;;;;;;12.88;10.23;;;10.30;99.90;;;;;;6307866;22;19999;-91
2024/02/03 04:38:02;;;;;;;11.93;9.95;;;10.30;99.90;;;;;;6307805;22;20003;-91
2024/02/03 04:40:28;;;;;;;14.48;10.50;;;10.30;99.90;;;;;;6282032;22;20088;-91
2024/02/03 04:42:54;;;;;;;14.80;10.32;;;10.30;99.90;;;;;;6307750;22;20006;-94
2024/02/03 04:45:20;;;;;;;14.07;9.95;;;10.30;99.90;;;;;;6281910;22;20107;-92
2024/02/03 04:47:47;;;;;;;13.15;9.73;;;10.30;99.90;;;;;;6283437;22;20017;-90
2024/02/03 04:50:12;;;;;;;14.18;11.10;;;10.30;99.90;;;;;;6283723;22;20006;-90
2024/02/03 04:52:39;;;;;;;16.05;10.27;;;10.30;99.90;;;;;;6283571;22;20065;-91
2024/02/03 04:55:08;;;;;;;15.27;10.50;;;10.30;99.90;;;;;;6309004;22;20393;-94
2024/02/03 04:57:33;;;;;;;16.02;10.18;;;10.30;99.90;;;;;;6283459;22;20018;-92
2024/02/03 04:59:59;;;;;;;17.88;10.15;;;10.30;99.90;;;;;;6283290;22;20435;-92
2024/02/03 05:02:25;;;;;;;13.77;8.88;;;10.30;99.90;;;;;;6308591;22;20006;-93
2024/02/03 05:04:50;;;;;;;21.10;10.65;;;10.30;99.90;;;;;;6334812;22;20046;-92
2024/02/03 05:07:16;;;;;;;17.02;9.70;;;10.30;99.90;;;;;;6283064;22;20060;-91
2024/02/03 05:09:42;;;;;;;15.60;10.00;;;10.30;99.90;;;;;;6283921;22;20014;-91
2024/02/03 05:12:08;;;;;;;12.43;9.60;;;10.30;99.90;;;;;;6308890;22;20082;-91
2024/02/03 05:14:35;;;;;;;14.68;9.95;;;10.30;99.90;;;;;;6282587;22;20105;-91
2024/02/03 05:17:00;;;;;;;14.90;9.00;;;10.30;99.90;;;;;;6282844;22;20007;-93
2024/02/03 05:19:27;;;;;;;12.43;9.32;;;10.30;99.90;;;;;;6282921;22;20094;-92
2024/02/03 05:21:53;;;;;;;13.98;9.68;;;10.30;99.90;;;;;;6282781;22;20364;-93
2024/02/03 05:24:19;;;;;;;16.33;9.65;;;10.40;99.90;;;;;;6281572;22;20031;-88
2024/02/03 05:26:45;;;;;;;17.63;9.93;;;10.40;99.90;;;;;;6280607;22;20006;-90
2024/02/03 05:29:10;;;;;;;14.77;9.20;;;10.30;99.90;;;;;;6282266;22;20007;-90
2024/02/03 05:31:36;;;;;;;12.07;8.60;;;10.30;99.90;;;;;;6308306;22;20024;-88
2024/02/03 05:34:02;;;;;;;12.48;8.07;;;10.30;99.90;;;;;;6282098;22;20065;-90
2024/02/03 05:36:28;;;;;;;11.95;7.78;;;10.30;99.90;;;;;;6307849;22;20415;-88
2024/02/03 05:38:53;;;;;;;12.75;9.27;;;10.30;99.90;;;;;;6334141;22;20435;-88
2024/02/03 05:41:19;;;;;;;10.77;8.07;;;10.30;99.90;;;;;;6282247;22;20419;-89
2024/02/03 05:43:45;;;;;;;13.35;8.43;;;10.30;99.90;;;;;;6308556;22;20427;-87
2024/02/03 05:46:10;;;;;;;18.05;9.00;;;10.30;99.90;;;;;;6282377;22;20313;-88
2024/02/03 05:48:36;;;;;;;11.18;8.15;;;10.30;99.90;;;;;;6335265;22;20015;-87
2024/02/03 05:51:02;;;;;;;14.68;8.65;;;10.30;99.90;;;;;;6282004;22;20055;-87
2024/02/03 05:53:27;;;;;;;13.00;8.07;;;10.40;99.90;;;;;;6282005;22;20015;-88
2024/02/03 05:55:53;;;;;;;10.23;6.13;;;10.40;99.90;;;;;;6307324;22;20102;-89
2024/02/03 05:58:19;;;;;;;15.15;8.13;;;10.30;99.90;;;;;;6307858;22;20426;-89
2024/02/03 06:00:44;;;;;;;10.50;8.45;;;10.30;99.90;;;;;;6308421;22;20074;-88
2024/02/03 06:03:10;;;;;;;8.95;7.13;;;10.30;99.90;;;;;;6333820;22;20007;-88
2024/02/03 06:05:36;;;;;;;11.77;7.00;;;10.30;99.90;;;;;;6281956;22;20078;-89
2024/02/03 06:08:01;;;;;;;9.10;6.47;;;10.30;99.90;;;;;;6282234;22;20056;-89
2024/02/03 06:10:27;;;;;;;12.52;8.10;;;10.30;99.90;;;;;;6307059;22;20034;-89
2024/02/03 06:12:53;;;;;;;12.13;7.63;;;10.30;99.90;;;;;;6334324;22;20010;-88
2024/02/03 06:15:18;;;;;;;13.40;6.82;;;10.40;99.90;;;;;;6281940;22;20011;-89
2024/02/03 06:17:44;;;;;;;11.82;5.93;;;10.40;99.90;;;;;;6307528;22;20007;-88
2024/02/03 06:20:12;;;;;;;9.25;5.82;;;10.30;99.90;;;;;;6333027;22;20006;-89
2024/02/03 06:22:38;;;;;;;8.50;5.68;;;10.40;99.90;;;;;;6282829;22;20014;-89
2024/02/03 06:25:04;;;;;;;9.20;4.47;;;10.30;99.90;;;;;;6281577;22;20019;-89
2024/02/03 06:27:30;;;;;;;9.73;5.63;;;10.30;99.90;;;;;;6307407;22;20081;-89
2024/02/03 06:29:55;;;;;;;8.73;5.20;;;10.30;99.90;;;;;;6307819;22;20038;-89
2024/02/03 06:32:21;;;;;;;8.30;4.68;;;10.30;99.90;;;;;;6307176;22;20003;-89
2024/02/03 06:34:47;;;;;;;12.52;5.55;;;10.30;99.90;;;;;;6308129;22;20027;-89
2024/02/03 06:37:14;;;;;;;10.23;5.50;;;10.30;99.90;;;;;;6281894;22;19999;-89
2024/02/03 06:39:40;;;;;;;8.98;4.75;;;10.30;99.90;;;;;;6307067;22;20458;-88
2024/02/03 06:42:06;;;;;;;9.82;5.10;;;10.30;99.90;;;;;;6333307;22;20035;-89
2024/02/03 06:44:31;;;;;;;12.18;4.47;;;10.30;99.90;;;;;;6281691;22;20066;-89
2024/02/03 06:46:57;;;;;;;11.05;4.60;;;10.30;99.90;;;;;;6335194;22;20124;-89
2024/02/03 06:49:23;;;;;;;8.32;4.28;;;10.30;99.90;;;;;;6307274;22;20431;-88
2024/02/03 06:51:48;;;;;;;7.53;4.63;;;10.30;99.90;;;;;;6333983;22;20085;-89
2024/02/03 06:54:14;;;;;;;7.82;5.28;;;10.30;99.90;;;;;;6307220;22;20435;-88
2024/02/03 06:56:39;;;;;;;9.38;4.75;;;10.30;99.90;;;;;;6308550;22;20006;-88
2024/02/03 06:59:06;;;;;;;7.85;4.47;;;10.30;99.90;;;;;;6335534;22;20009;-86
2024/02/03 07:01:32;;;;;;;9.25;4.75;;;10.30;99.90;;;;;;6333865;22;19999;-89
2024/02/03 07:03:57;;;;;;;9.20;5.40;;;10.30;99.90;;;;;;6334853;22;20438;-88
2024/02/03 07:06:23;;;;;;;7.55;4.57;;;10.30;99.90;;;;;;6335275;22;20320;-88
2024/02/03 07:08:49;;;;;;;13.38;4.70;;;10.30;99.90;;;;;;6332715;22;20076;-88
2024/02/03 07:11:15;;;;;;;13.07;5.85;;;10.30;99.90;;;;;;6335692;22;20005;-88
2024/02/03 07:13:41;;;;;;;10.50;4.88;;;10.30;99.90;;;;;;6282249;22;20041;-87
2024/02/03 07:16:08;;;;;;;9.57;5.22;;;10.30;99.90;;;;;;6335293;22;20308;-87
2024/02/03 07:18:34;;;;;;;9.48;5.25;;;10.30;99.90;;;;;;6281366;22;20136;-87
2024/02/03 07:21:00;;;;;;;14.70;5.25;;;10.30;99.90;;;;;;6334081;22;20053;-90
2024/02/03 07:23:25;;;;;;;6.72;3.50;;;10.30;99.90;;;;;;6281471;22;20427;-88
2024/02/03 07:25:51;;;;;;;8.48;4.78;;;10.30;99.90;;;;;;6307359;22;20093;-88
2024/02/03 07:28:17;;;;;;;10.70;5.30;;;10.30;99.90;;;;;;6334605;22;20021;-89
2024/02/03 07:30:42;;;;;;;8.60;4.20;;;10.30;99.90;;;;;;6332879;22;20021;-88
2024/02/03 07:33:09;;;;;;;11.57;5.15;;;10.20;99.90;;;;;;6282003;22;20257;-88
2024/02/03 07:35:35;;;;;;;8.68;4.97;;;10.30;99.90;;;;;;6307066;22;20017;-88
2024/02/03 07:38:02;;;;;;;8.95;4.30;;;10.30;99.90;;;;;;6280776;22;20003;-88
2024/02/03 07:40:27;;;;;;;9.38;5.05;;;10.20;99.90;;;;;;6281275;22;20018;-89
2024/02/03 07:42:53;;;;;;;14.70;4.20;;;10.20;99.90;;;;;;6305896;22;20378;-84
2024/02/03 07:45:19;;;;;;;6.03;4.30;;;10.30;99.90;;;;;;6305536;22;20029;-84
2024/02/03 07:47:45;;;;;;;12.98;4.85;;;10.30;99.90;;;;;;6276049;22;20060;-85
2024/02/03 07:50:11;;;;;;;10.95;5.05;;;10.30;99.90;;;;;;6238478;22;20023;-84
2024/02/03 07:52:37;;;;;;;9.85;5.25;;;10.30;99.90;;;;;;6272281;22;20010;-83
2024/02/03 07:55:12;;;;;;;9.88;5.50;;;10.30;99.90;;;;;;6300790;22;20007;-85
2024/02/03 07:57:37;;;;;;;14.10;5.55;;;10.30;99.90;;;;;;6298700;22;20030;-84
2024/02/03 08:00:03;;;;;;;11.45;5.40;;;10.30;99.90;;;;;;6301894;22;20014;-85
2024/02/03 08:02:30;;;;;;;10.50;5.38;;;10.20;99.90;;;;;;6302031;22;20043;-85
2024/02/03 08:04:55;;;;;;;11.07;5.63;;;10.30;99.90;;;;;;6299216;22;20214;-86
2024/02/03 08:07:21;;;;;;;12.88;5.05;;;10.30;99.90;;;;;;6275484;22;20057;-83
2024/02/03 08:09:46;;;;;;;9.95;4.63;;;10.20;99.90;;;;;;6302167;22;20007;-85
2024/02/03 08:12:12;;;;;;;14.45;6.85;;;10.20;99.90;;;;;;6301296;22;20006;-86
2024/02/03 08:14:38;;;;;;;13.25;6.70;;;10.30;99.90;;;;;;6275707;22;20015;-85
2024/02/03 08:17:04;;;;;;;13.98;7.13;;;10.20;99.90;;;;;;6300584;22;20470;-85
2024/02/03 08:19:29;;;;;;;11.00;5.90;;;10.20;99.90;;;;;;6302290;22;20010;-85
2024/02/03 08:21:55;;;;;;;14.05;6.95;;;10.20;99.90;;;;;;6278587;22;20007;-85
2024/02/03 08:24:20;;;;;;;14.55;7.70;;;10.10;99.90;;;;;;6302750;22;20081;-84
2024/02/03 08:26:46;;;;;;;14.07;6.50;;;10.20;99.90;;;;;;6277804;22;20081;-84
2024/02/03 08:29:12;;;;;;;12.68;7.20;;;10.20;99.90;;;;;;6303803;22;20089;-84
2024/02/03 08:31:37;;;;;;;13.50;7.60;;;10.20;99.90;;;;;;6303563;22;20011;-84
2024/02/03 08:34:03;;;;;;;17.75;8.90;;;10.20;99.90;;;;;;6303752;22;20069;-86
2024/02/03 08:36:29;;;;;;;10.75;6.60;;;10.20;99.90;;;;;;6302944;22;20399;-86
2024/02/03 08:38:55;;;;;;;14.10;8.55;;;10.30;99.90;;;;;;6278338;22;20335;-86
2024/02/03 08:41:21;;;;;;;16.95;8.32;;;10.30;99.90;;;;;;6333686;22;20009;-84
2024/02/03 08:43:47;;;;;;;18.15;9.40;;;10.30;99.90;;;;;;6281291;22;20094;-85
2024/02/03 08:46:12;;;;;;;15.48;8.73;;;10.30;99.90;;;;;;6281711;22;20082;-86
2024/02/03 08:48:38;;;;;;;16.02;8.48;;;10.40;99.90;;;;;;6307964;22;20019;-86
2024/02/03 08:51:04;;;;;;;13.70;8.82;;;10.40;99.90;;;;;;6281899;22;19999;-84
2024/02/03 08:53:30;;;;;;;13.80;7.70;;;10.40;99.90;;;;;;6334766;22;20003;-85
2024/02/03 08:55:55;;;;;;;21.55;8.93;;;10.40;99.90;;;;;;6307845;22;20010;-85
2024/02/03 08:58:21;;;;;;;14.93;9.77;;;10.40;99.90;;;;;;6307313;22;20003;-85
2024/02/03 09:00:47;;;;;;;16.88;8.57;;;10.40;99.90;;;;;;6282163;22;20018;-85
2024/02/03 09:03:12;;;;;;;14.32;8.73;;;10.40;99.90;;;;;;6333038;22;20009;-86
2024/02/03 09:05:38;;;;;;;10.82;7.50;;;10.40;99.90;;;;;;6282149;22;20327;-86
2024/02/03 09:08:04;;;;;;;12.18;6.78;;;10.40;99.90;;;;;;6335114;22;19999;-85
2024/02/03 09:10:30;;;;;;;12.68;7.03;;;10.40;99.90;;;;;;6308011;22;20014;-87
2024/02/03 09:12:56;;;;;;;14.95;9.27;;;10.40;99.90;;;;;;6280853;22;20026;-86
2024/02/03 09:15:21;;;;;;;13.80;8.13;;;10.40;99.90;;;;;;6281192;22;20021;-85
2024/02/03 09:17:50;;;;;;;15.98;9.73;;;10.40;99.90;;;;;;6335965;22;20005;-86
2024/02/03 09:20:16;;;;;;;12.07;7.65;;;10.40;99.90;;;;;;6281615;22;20018;-85
2024/02/03 09:22:43;;;;;;;17.67;8.48;;;10.40;99.90;;;;;;6334844;22;20443;-86
2024/02/03 09:25:09;;;;;;;16.38;8.95;;;10.40;99.90;;;;;;6279404;22;20018;-84
2024/02/03 09:27:34;;;;;;;17.95;8.63;;;10.40;99.90;;;;;;6307433;22;20030;-85
2024/02/03 09:30:02;;;;;;;16.95;7.40;;;10.50;99.90;;;;;;6307973;22;20309;-86
2024/02/03 09:32:28;;;;;;;11.40;6.13;;;10.50;99.90;;;;;;6307238;22;20011;-85
2024/02/03 09:34:54;;;;;;;18.23;7.85;;;10.50;99.90;;;;;;6281893;22;20003;-87
2024/02/03 09:37:20;;;;;;;15.90;8.65;;;10.50;99.90;;;;;;6281858;22;20061;-86
2024/02/03 09:39:46;;;;;;;12.82;6.60;;;10.50;99.90;;;;;;6307708;22;20086;-85
2024/02/03 09:42:12;;;;;;;14.18;6.68;;;10.50;99.90;;;;;;6332820;22;20072;-85
2024/02/03 09:44:38;;;;;;;10.18;6.25;;;10.50;99.90;;;;;;6307287;22;20015;-85
2024/02/03 09:47:04;;;;;;;14.15;6.30;;;10.50;99.90;;;;;;6307633;22;20009;-87
2024/02/03 09:49:30;;;;;;;16.13;6.63;;;10.50;99.90;;;;;;6307326;22;20023;-85
2024/02/03 09:51:57;;;;;;;19.10;7.68;;;10.50;99.90;;;;;;6281913;22;20006;-85
2024/02/03 09:54:24;;;;;;;11.63;6.30;;;10.60;99.90;;;;;;6306021;22;20060;-84
2024/02/03 09:56:50;;;;;;;12.52;5.35;;;10.60;99.90;;;;;;6281281;22;20461;-85
2024/02/03 09:59:16;;;;;;;19.17;8.05;;;10.60;99.90;;;;;;6307232;22;20010;-85
2024/02/03 10:01:46;;;;;;;14.70;7.70;;;10.60;99.90;;;;;;6281422;22;20007;-85
2024/02/03 10:04:13;;;;;;;15.23;8.00;;;10.60;99.90;;;;;;6277932;22;20015;-84
2024/02/03 10:06:42;;;;;;;16.52;8.00;;;10.60;99.90;;;;;;6281713;22;20160;-86
2024/02/03 10:09:08;;;;;;;16.10;7.28;;;10.50;99.90;;;;;;6281690;22;20011;-84
2024/02/03 10:11:40;;;;;;;12.80;6.47;;;10.60;99.90;;;;;;6307055;22;20013;-85
2024/02/03 10:14:06;;;;;;;12.60;5.63;;;10.60;99.90;;;;;;6281516;22;20007;-85
2024/02/03 10:16:43;;;;;;;16.85;6.95;;;10.60;99.90;;;;;;6306431;22;20076;-84
2024/02/03 10:19:08;;;;;;;11.85;5.63;;;10.60;99.90;;;;;;6281514;22;20016;-86
2024/02/03 10:21:34;;;;;;;12.07;5.00;;;10.60;99.90;;;;;;6281586;22;20074;-85
2024/02/03 10:24:00;;;;;;;10.65;5.20;;;10.60;99.90;;;;;;6281123;22;20018;-87
2024/02/03 10:26:25;;;;;;;11.25;5.95;;;10.70;99.90;;;;;;6281554;22;20005;-85
2024/02/03 10:28:51;;;;;;;10.93;5.70;;;10.60;99.90;;;;;;6307123;22;20011;-85
2024/02/03 10:31:17;;;;;;;12.05;5.38;;;10.70;99.90;;;;;;6281077;22;20010;-85
2024/02/03 10:33:45;;;;;;;14.27;5.18;;;10.60;99.90;;;;;;6333307;22;20149;-85
2024/02/03 10:36:11;;;;;;;10.98;4.93;;;10.70;99.90;;;;;;6306776;22;20068;-86
2024/02/03 10:38:36;;;;;;;9.45;4.25;;;10.70;99.90;;;;;;6334674;22;19999;-85
2024/02/03 10:41:05;;;;;;;10.35;4.05;;;10.70;99.90;;;;;;6307053;22;20090;-86
2024/02/03 10:43:34;;;;;;;12.20;5.35;;;10.60;99.90;;;;;;6281044;22;20319;-85
2024/02/03 10:46:04;;;;;;;9.25;3.47;;;10.70;99.90;;;;;;6307240;22;20446;-86
2024/02/03 10:48:33;;;;;;;8.30;3.78;;;10.70;99.90;;;;;;6280802;22;20025;-85
2024/02/03 10:51:15;;;;;;;11.18;4.38;;;10.70;99.90;;;;;;6306447;22;20034;-85
2024/02/03 10:53:49;;;;;;;12.82;4.45;;;10.70;99.90;;;;;;6334594;22;20318;-85
2024/02/03 10:56:18;;;;;;;10.15;3.17;;;10.70;99.90;;;;;;6334375;22;20007;-86
2024/02/03 10:58:44;;;;;;;7.18;3.65;;;10.80;99.90;;;;;;6280768;22;20010;-86
2024/02/03 11:01:20;;;;;;;9.30;3.67;;;10.80;99.90;;;;;;6280989;22;20404;-85
2024/02/03 11:03:50;;;;;;;9.65;3.33;;;10.80;99.90;;;;;;6334043;22;20010;-85
2024/02/03 11:06:29;;;;;;;12.07;4.22;;;10.80;99.90;;;;;;6281465;22;20339;-85
2024/02/03 11:09:14;;;;;;;7.90;3.22;;;10.80;99.90;;;;;;6281192;22;19999;-86
2024/02/03 11:11:48;;;;;;;9.90;2.97;;;10.80;99.90;;;;;;6306317;22;20067;-85
2024/02/03 11:14:23;;;;;;;8.75;2.65;;;10.80;99.90;;;;;;6306727;22;20077;-86
2024/02/03 11:17:04;;;;;;;6.07;2.10;;;10.80;99.90;;;;;;6306374;22;20068;-85
2024/02/03 11:19:35;;;;;;;7.03;2.60;;;10.80;99.90;;;;;;6280834;22;20045;-86
2024/02/03 11:22:05;;;;;;;6.28;3.13;;;10.90;99.90;;;;;;6273791;22;20011;-84
2024/02/03 11:24:34;;;;;;;7.72;2.10;;;10.80;99.90;;;;;;6280312;22;20047;-86
2024/02/03 11:27:11;;;;;;;6.67;1.67;;;10.80;99.90;;;;;;6307143;22;20524;-85
2024/02/03 11:29:37;;;;;;;7.68;2.00;;;10.80;99.90;;;;;;6279427;22;20582;-85
2024/02/03 11:32:04;;;;;;;12.35;2.88;;;10.80;99.90;;;;;;6302514;22;20007;-86
2024/02/03 11:34:32;;;;;;;4.40;1.60;;;10.70;99.90;;;;;;6305330;22;20102;-86
2024/02/03 11:36:59;;;;;;;5.07;2.15;;;10.70;99.90;;;;;;6331122;22;20086;-86
2024/02/03 11:39:36;;;;;;;8.05;2.35;;;10.70;99.90;;;;;;6279174;22;20106;-84
2024/02/03 11:42:03;;;;;;;6.22;1.95;;;10.60;99.90;;;;;;6302709;22;20010;-84
2024/02/03 11:44:50;;;;;;;5.68;1.80;;;10.70;99.90;;;;;;6278707;22;20018;-85
2024/02/03 11:47:19;;;;;;;5.43;2.15;;;10.70;99.90;;;;;;6301018;22;20003;-84
2024/02/03 11:49:49;;;;;;;5.75;2.72;;;10.70;99.90;;;;;;6304740;22;20336;-85
2024/02/03 11:52:14;;;;;;;;;;;10.70;99.90;;;;;;6305428;22;20037;-85
2024/02/03 11:54:40;;;;;;;7.68;2.55;;;10.70;99.90;;;;;;6332815;22;19940;-86
2024/02/03 11:57:06;;;;;;;3.28;1.70;;;10.70;99.90;;;;;;6332738;22;19998;-86
2024/02/03 11:59:32;;;;;;;4.03;1.95;;;10.80;99.90;;;;;;6280644;22;20003;-85
2024/02/03 12:01:58;;;;;;;4.13;2.25;;;10.70;99.90;;;;;;6333336;22;20010;-86
2024/02/03 12:04:25;;;;;;;7.10;2.67;;;10.70;99.90;;;;;;6280650;22;20018;-85
2024/02/03 12:06:52;;;;;;;2.83;1.30;;;10.80;99.90;;;;;;6306836;22;20014;-86
2024/02/03 12:09:18;;;;;;;5.40;1.95;;;10.80;99.90;;;;;;6280737;22;20639;-84
2024/02/03 12:11:47;;;;;;;10.63;2.47;;;10.80;99.90;;;;;;6281059;22;19999;-88
2024/02/03 12:14:13;;;;;;;4.88;2.17;;;10.80;99.90;;;;;;6301928;22;20011;-88
2024/02/03 12:16:42;;;;;;;5.75;1.58;;;10.80;99.90;;;;;;6332562;22;20022;-86
2024/02/03 12:19:09;;;;;;;6.40;1.80;;;10.90;99.90;;;;;;6305907;22;20072;-86
2024/02/03 12:21:35;;;;;;;4.63;1.50;;;10.90;99.90;;;;;;6306910;22;20007;-88
2024/02/03 12:24:00;;;;;;;2.33;1.27;;;10.80;99.90;;;;;;6332294;22;20025;-87
2024/02/03 12:26:26;;;;;;;3.30;1.15;;;10.90;99.90;;;;;;6305867;22;20031;-87
2024/02/03 12:28:53;;;;;;;5.05;2.30;;;10.90;99.90;;;;;;6306426;22;20031;-88
2024/02/03 12:31:19;;;;;;;3.85;1.63;;;10.90;99.90;;;;;;6280976;22;20391;-87
2024/02/03 12:33:44;;;;;;;3.38;1.73;;;10.90;99.90;;;;;;6306505;22;20029;-87